Time;durP1;ratioP1;P1;durP2;ratioP2;P2;SDS_P1;SDS_P2;PMS_P1;PMS_P2;Temp;Humidity;BMP_temperature;BMP_pressure;BME280_temperature;BME280_humidity;BME280_pressure;Samples;Min_cycle;Max_cycle;Signal;HPM_P1;HPM_P2
2022/09/28 00:02:04;;;;;;;0.10;0.10;;;12.80;99.90;;;;;;5004225;28;20104;-78
2022/09/28 00:04:29;;;;;;;0.13;0.13;;;12.80;99.90;;;;;;5003024;28;20028;-78
2022/09/28 00:06:55;;;;;;;0.20;0.20;;;12.80;99.90;;;;;;5004530;28;20299;-77
2022/09/28 00:09:21;;;;;;;0.10;0.10;;;12.80;99.90;;;;;;5004421;28;20033;-77
2022/09/28 00:11:46;;;;;;;0.10;0.10;;;12.70;99.90;;;;;;5004742;28;20046;-77
2022/09/28 00:14:13;;;;;;;0.10;0.10;;;12.70;99.90;;;;;;5005045;28;20425;-77
2022/09/28 00:16:41;;;;;;;0.10;0.10;;;12.60;99.90;;;;;;5006321;28;20354;-77
2022/09/28 00:19:07;;;;;;;0.10;0.10;;;12.60;99.90;;;;;;5006301;28;20026;-77
2022/09/28 00:21:36;;;;;;;0.20;0.20;;;12.60;99.90;;;;;;5003843;28;20029;-78
2022/09/28 00:24:16;;;;;;;0.10;0.10;;;12.50;99.90;;;;;;5004313;28;20188;-77
2022/09/28 00:26:45;;;;;;;0.20;0.20;;;12.00;99.90;;;;;;5004947;28;20049;-77
2022/09/28 00:29:31;;;;;;;0.10;0.10;;;12.40;99.90;;;;;;5003070;28;20104;-77
2022/09/28 00:32:02;;;;;;;0.10;0.10;;;12.30;99.90;;;;;;5000337;28;20026;-77
2022/09/28 00:34:38;;;;;;;0.10;0.10;;;12.20;99.90;;;;;;5001990;28;20026;-77
2022/09/28 00:37:07;;;;;;;0.10;0.10;;;11.60;99.90;;;;;;5003235;28;20659;-77
2022/09/28 00:39:34;;;;;;;0.10;0.10;;;12.10;99.90;;;;;;5002452;28;20022;-77
2022/09/28 00:42:01;;;;;;;0.10;0.10;;;12.10;99.90;;;;;;5002567;28;20029;-77
2022/09/28 00:44:38;;;;;;;0.20;0.20;;;12.10;99.90;;;;;;5003068;28;20025;-78
2022/09/28 00:47:07;;;;;;;0.10;0.10;;;12.10;99.90;;;;;;5003284;28;20015;-77
2022/09/28 00:49:42;;;;;;;0.20;0.20;;;12.10;99.90;;;;;;5003317;28;20072;-77
2022/09/28 00:52:13;;;;;;;0.10;0.10;;;12.10;99.90;;;;;;5003415;28;20026;-77
2022/09/28 00:54:42;;;;;;;0.15;0.15;;;12.00;99.90;;;;;;5003105;28;20141;-77
2022/09/28 00:57:08;;;;;;;0.13;0.13;;;11.90;99.90;;;;;;5002959;28;20038;-77
2022/09/28 00:59:34;;;;;;;0.10;0.10;;;13.80;99.90;;;;;;5003748;28;20030;-79
2022/09/28 01:02:01;;;;;;;0.10;0.10;;;12.00;99.90;;;;;;5000469;28;20052;-77
2022/09/28 01:04:28;;;;;;;0.10;0.10;;;11.90;99.90;;;;;;5001916;28;20138;-77
2022/09/28 01:06:56;;;;;;;0.20;0.20;;;11.90;99.90;;;;;;5001402;28;20113;-77
2022/09/28 01:09:23;;;;;;;0.10;0.10;;;11.80;99.90;;;;;;5002710;28;20018;-77
2022/09/28 01:11:50;;;;;;;0.10;0.10;;;11.80;99.90;;;;;;5005525;28;20077;-77
2022/09/28 01:14:18;;;;;;;0.10;0.10;;;11.80;99.90;;;;;;5004973;28;20385;-77
2022/09/28 01:17:12;;;;;;;0.10;0.10;;;11.80;99.90;;;;;;5006027;28;20057;-77
2022/09/28 01:19:57;;;;;;;0.10;0.10;;;11.80;99.90;;;;;;5002574;28;20026;-77
2022/09/28 01:22:31;;;;;;;0.10;0.10;;;11.90;99.90;;;;;;5002867;28;20045;-77
2022/09/28 01:25:06;;;;;;;0.10;0.10;;;11.90;99.90;;;;;;5003070;28;20338;-77
2022/09/28 01:27:43;;;;;;;0.20;0.20;;;12.00;99.90;;;;;;5001867;28;20025;-77
2022/09/28 01:30:17;;;;;;;0.20;0.20;;;12.00;99.90;;;;;;5002179;28;20029;-77
2022/09/28 01:33:09;;;;;;;0.10;0.10;;;12.10;99.90;;;;;;5001306;28;20045;-77
2022/09/28 01:35:53;;;;;;;0.10;0.10;;;12.10;99.90;;;;;;5003132;28;20018;-77
2022/09/28 01:38:23;;;;;;;0.10;0.10;;;12.10;99.90;;;;;;5000817;28;20411;-77
2022/09/28 01:40:51;;;;;;;0.10;0.10;;;12.10;99.90;;;;;;5001710;28;20579;-78
2022/09/28 01:43:24;;;;;;;0.10;0.10;;;10.90;99.90;;;;;;5001927;28;20026;-77
2022/09/28 01:46:04;;;;;;;0.10;0.10;;;12.00;99.90;;;;;;5003712;28;20120;-77
2022/09/28 01:48:51;;;;;;;0.10;0.10;;;12.00;99.90;;;;;;5004902;28;20226;-77
2022/09/28 01:51:40;;;;;;;0.10;0.10;;;12.10;99.90;;;;;;5005102;28;20034;-77
2022/09/28 01:54:12;;;;;;;0.10;0.10;;;12.10;99.90;;;;;;5001735;28;20018;-78
2022/09/28 01:56:49;;;;;;;0.20;0.20;;;12.10;99.90;;;;;;5002006;28;20258;-77
2022/09/28 01:59:20;;;;;;;0.20;0.20;;;12.10;99.90;;;;;;5002628;28;20026;-77
2022/09/28 02:01:58;;;;;;;0.20;0.20;;;12.10;99.90;;;;;;5004014;28;20303;-78
2022/09/28 02:04:38;;;;;;;0.10;0.10;;;12.10;99.90;;;;;;5002923;28;20436;-76
2022/09/28 02:07:18;;;;;;;0.20;0.20;;;12.10;99.90;;;;;;5005762;28;20025;-81
2022/09/28 02:09:49;;;;;;;0.20;0.20;;;12.00;99.90;;;;;;5008105;28;20132;-77
2022/09/28 02:12:41;;;;;;;0.10;0.10;;;12.00;99.90;;;;;;5009278;28;20026;-78
2022/09/28 02:15:18;;;;;;;0.20;0.20;;;12.00;99.90;;;;;;4984862;28;20027;-79
2022/09/28 02:17:44;;;;;;;0.20;0.20;;;12.00;99.90;;;;;;4981715;28;20513;-77
2022/09/28 02:20:10;;;;;;;0.10;0.10;;;12.00;99.90;;;;;;4979060;28;20054;-78
2022/09/28 02:22:52;;;;;;;0.15;0.15;;;12.10;99.90;;;;;;4979952;28;20049;-78
2022/09/28 02:25:30;;;;;;;0.10;0.10;;;12.10;99.90;;;;;;4967264;28;20084;-78
2022/09/28 02:28:00;;;;;;;0.10;0.10;;;12.10;99.90;;;;;;4985688;28;20080;-80
2022/09/28 02:30:28;;;;;;;0.10;0.10;;;12.10;99.90;;;;;;4983827;28;20030;-78
2022/09/28 02:32:59;;;;;;;0.13;0.13;;;12.00;99.90;;;;;;4977614;28;20065;-78
2022/09/28 02:35:25;;;;;;;0.10;0.10;;;11.80;99.90;;;;;;4977288;28;20018;-78
2022/09/28 02:37:52;;;;;;;0.13;0.13;;;;;;;;;;4961481;28;20030;-78
2022/09/28 02:40:28;;;;;;;0.10;0.10;;;11.90;99.90;;;;;;4978082;28;20133;-78
2022/09/28 02:43:12;;;;;;;0.17;0.17;;;11.90;99.90;;;;;;4977937;28;20073;-78
2022/09/28 02:45:50;;;;;;;;;;;11.80;99.90;;;;;;4962409;28;20022;-78
2022/09/28 02:48:25;;;;;;;0.85;0.85;;;11.80;99.90;;;;;;4979479;28;19912;-79
2022/09/28 02:51:19;;;;;;;0.10;0.10;;;11.80;99.90;;;;;;4978755;28;20343;-78
2022/09/28 02:54:04;;;;;;;0.20;0.20;;;11.70;99.90;;;;;;4977694;28;20502;-78
2022/09/28 02:56:49;;;;;;;0.10;0.10;;;11.60;99.90;;;;;;4979035;28;20038;-78
2022/09/28 02:59:38;;;;;;;0.10;0.10;;;11.60;99.90;;;;;;4977734;28;20030;-78
2022/09/28 03:02:12;;;;;;;0.10;0.10;;;11.50;99.90;;;;;;4962776;28;20174;-79
2022/09/28 03:04:38;;;;;;;;;;;11.50;99.90;;;;;;4978180;28;20536;-78
2022/09/28 03:07:15;;;;;;;0.10;0.10;;;11.40;99.90;;;;;;4978535;28;19991;-78
2022/09/28 03:09:54;;;;;;;0.10;0.10;;;11.30;99.90;;;;;;4964559;28;20030;-78
2022/09/28 03:12:23;;;;;;;0.20;0.20;;;11.30;99.90;;;;;;4962000;28;20057;-78
2022/09/28 03:15:09;;;;;;;0.10;0.10;;;11.30;99.90;;;;;;4981410;28;20364;-78
2022/09/28 03:17:35;;;;;;;0.15;0.15;;;11.40;99.90;;;;;;4961574;28;20141;-78
2022/09/28 03:20:03;;;;;;;0.10;0.10;;;10.00;99.90;;;;;;4961712;28;20030;-77
2022/09/28 03:22:28;;;;;;;0.10;0.10;;;11.30;99.90;;;;;;4961075;28;20037;-77
2022/09/28 03:24:56;;;;;;;0.10;0.10;;;11.20;99.90;;;;;;4977637;28;20038;-78
2022/09/28 03:27:21;;;;;;;0.17;0.17;;;11.20;99.90;;;;;;4961746;28;20034;-77
2022/09/28 03:29:47;;;;;;;0.10;0.10;;;11.30;99.90;;;;;;4978583;28;20031;-78
2022/09/28 03:32:13;;;;;;;0.10;0.10;;;11.30;99.90;;;;;;5000465;28;20022;-78
2022/09/28 03:34:41;;;;;;;0.20;0.20;;;11.40;99.90;;;;;;5000982;28;20397;-78
2022/09/28 03:37:08;;;;;;;0.13;0.13;;;11.40;99.90;;;;;;4998771;28;20038;-78
2022/09/28 03:39:33;;;;;;;0.10;0.10;;;11.40;99.90;;;;;;5000386;28;20249;-78
2022/09/28 03:42:00;;;;;;;2.25;2.15;;;11.40;99.90;;;;;;5000723;28;20022;-78
2022/09/28 03:44:25;;;;;;;0.10;0.10;;;11.50;99.90;;;;;;5000427;28;20046;-77
2022/09/28 03:46:51;;;;;;;0.10;0.10;;;11.50;99.90;;;;;;5000374;28;20655;-78
2022/09/28 03:49:17;;;;;;;0.10;0.10;;;11.60;99.90;;;;;;5000423;28;20109;-78
2022/09/28 03:51:42;;;;;;;0.10;0.10;;;11.60;99.90;;;;;;5000214;28;20030;-79
2022/09/28 03:54:10;;;;;;;0.20;0.20;;;;;;;;;;4998147;28;20091;-78
2022/09/28 03:56:36;;;;;;;0.10;0.10;;;11.60;99.90;;;;;;4998370;28;20417;-77
2022/09/28 03:59:03;;;;;;;0.10;0.10;;;11.70;99.90;;;;;;5000332;28;20045;-78
2022/09/28 04:01:29;;;;;;;0.20;0.20;;;11.70;99.90;;;;;;4999942;28;20037;-78
2022/09/28 04:03:55;;;;;;;0.20;0.20;;;10.60;99.90;;;;;;5000172;28;20022;-78
2022/09/28 04:06:23;;;;;;;0.10;0.10;;;11.80;99.90;;;;;;5004417;28;20022;-78
2022/09/28 04:08:51;;;;;;;0.10;0.10;;;11.70;99.90;;;;;;5003736;28;20030;-78
2022/09/28 04:11:18;;;;;;;0.10;0.10;;;11.60;99.90;;;;;;5002583;28;20037;-78
2022/09/28 04:13:50;;;;;;;0.20;0.20;;;11.60;99.90;;;;;;5005234;28;20032;-78
2022/09/28 04:16:17;;;;;;;4.57;4.38;;;11.60;99.90;;;;;;5003112;28;20389;-78
2022/09/28 04:18:43;;;;;;;0.75;0.75;;;11.60;99.90;;;;;;5003617;28;20026;-77
2022/09/28 04:21:14;;;;;;;1.48;1.38;;;11.60;99.90;;;;;;5002598;28;20234;-78
2022/09/28 04:23:40;;;;;;;0.10;0.10;;;11.70;99.90;;;;;;5002354;28;20025;-78
2022/09/28 04:26:18;;;;;;;0.13;0.13;;;11.70;99.90;;;;;;5003957;28;20558;-78
2022/09/28 04:31:37;;;;;;;0.10;0.10;;;11.70;99.90;;;;;;5004324;28;20103;-78
2022/09/28 04:34:02;;;;;;;;;;;11.60;99.90;;;;;;5002721;28;20056;-78
2022/09/28 04:36:32;;;;;;;0.10;0.10;;;11.70;99.90;;;;;;5034749;28;20407;-78
2022/09/28 04:39:03;;;;;;;1.98;1.88;;;11.70;99.90;;;;;;5004097;28;20064;-78
2022/09/28 04:41:29;;;;;;;0.10;0.10;;;9.50;99.90;;;;;;5002573;28;20149;-78
2022/09/28 04:43:55;;;;;;;0.40;0.40;;;11.80;99.90;;;;;;5002650;28;20022;-78
2022/09/28 04:46:20;;;;;;;0.20;0.20;;;11.90;99.90;;;;;;5003042;28;20116;-77
2022/09/28 04:48:47;;;;;;;0.47;0.47;;;11.80;99.90;;;;;;5002973;28;20037;-77
2022/09/28 04:51:12;;;;;;;0.10;0.10;;;11.80;99.90;;;;;;5002894;28;20042;-77
2022/09/28 04:53:38;;;;;;;0.10;0.10;;;11.90;99.90;;;;;;5002737;28;20105;-77
2022/09/28 04:56:07;;;;;;;0.10;0.10;;;11.90;99.90;;;;;;5002390;28;20088;-78
2022/09/28 04:58:37;;;;;;;0.10;0.10;;;11.90;99.90;;;;;;5001225;28;20041;-78
2022/09/28 05:01:08;;;;;;;0.10;0.10;;;11.90;99.90;;;;;;5002973;28;20026;-78
2022/09/28 05:03:37;;;;;;;0.10;0.10;;;11.90;99.90;;;;;;5001710;28;20025;-78
2022/09/28 05:06:26;;;;;;;0.10;0.10;;;11.90;99.90;;;;;;5001834;28;20088;-78
2022/09/28 05:08:52;;;;;;;0.10;0.10;;;12.00;99.90;;;;;;5001243;28;20217;-78
2022/09/28 05:11:20;;;;;;;0.20;0.20;;;11.30;99.90;;;;;;5003760;28;20120;-78
2022/09/28 05:13:49;;;;;;;0.10;0.10;;;12.00;99.90;;;;;;5005114;28;20018;-78
2022/09/28 05:16:16;;;;;;;0.10;0.10;;;12.00;99.90;;;;;;5003048;28;20030;-79
2022/09/28 05:18:42;;;;;;;0.10;0.10;;;12.00;99.90;;;;;;5003187;28;20045;-78
2022/09/28 05:21:11;;;;;;;0.30;0.30;;;12.00;99.90;;;;;;5002548;28;20401;-78
2022/09/28 05:23:44;;;;;;;0.10;0.10;;;12.10;99.90;;;;;;5003700;28;20034;-77
2022/09/28 05:26:15;;;;;;;0.10;0.10;;;11.00;99.90;;;;;;5003052;28;20050;-78
2022/09/28 05:28:40;;;;;;;0.10;0.10;;;12.10;99.90;;;;;;5004104;28;20079;-78
2022/09/28 05:31:08;;;;;;;0.17;0.17;;;12.20;99.90;;;;;;5004331;28;20017;-78
2022/09/28 05:33:36;;;;;;;0.10;0.10;;;10.20;99.90;;;;;;5004241;28;20022;-78
2022/09/28 05:36:02;;;;;;;0.10;0.10;;;12.60;99.90;;;;;;5006920;28;20042;-78
2022/09/28 05:38:28;;;;;;;0.10;0.10;;;12.20;99.90;;;;;;5005660;28;20029;-78
2022/09/28 05:40:57;;;;;;;0.10;0.10;;;12.20;99.90;;;;;;5004878;28;20033;-79
2022/09/28 05:43:24;;;;;;;0.15;0.15;;;12.10;99.90;;;;;;5005662;28;20084;-78
2022/09/28 05:45:50;;;;;;;0.20;0.20;;;12.10;99.90;;;;;;5003272;28;20033;-78
2022/09/28 05:48:15;;;;;;;0.10;0.10;;;12.10;99.90;;;;;;5002011;28;20022;-78
2022/09/28 05:50:41;;;;;;;0.10;0.10;;;12.10;99.90;;;;;;5002228;28;20081;-79
2022/09/28 05:53:11;;;;;;;0.10;0.10;;;12.10;99.90;;;;;;5001348;28;20224;-78
2022/09/28 05:55:38;;;;;;;0.10;0.10;;;10.60;99.90;;;;;;5003324;28;20026;-78
2022/09/28 05:58:07;;;;;;;0.17;0.17;;;12.00;99.90;;;;;;5000547;28;20041;-78
2022/09/28 06:00:35;;;;;;;0.10;0.10;;;12.00;99.90;;;;;;5002260;28;20022;-78
2022/09/28 06:03:04;;;;;;;0.10;0.10;;;12.00;99.90;;;;;;5003127;28;20034;-78
2022/09/28 06:05:31;;;;;;;0.10;0.10;;;12.00;99.90;;;;;;5003692;28;20025;-77
2022/09/28 06:08:00;;;;;;;0.10;0.10;;;12.00;99.90;;;;;;5002455;28;20109;-79
2022/09/28 06:10:27;;;;;;;1.58;1.55;;;12.10;99.90;;;;;;5001459;28;20137;-78
2022/09/28 06:13:00;;;;;;;0.10;0.10;;;12.10;99.90;;;;;;5001936;28;20228;-78
2022/09/28 06:15:28;;;;;;;0.10;0.10;;;12.10;99.90;;;;;;5004150;28;20156;-77
2022/09/28 06:17:58;;;;;;;0.20;0.20;;;12.20;99.90;;;;;;5003866;28;20277;-77
2022/09/28 06:20:26;;;;;;;0.10;0.10;;;12.20;99.90;;;;;;4999226;28;20033;-77
2022/09/28 06:22:53;;;;;;;0.10;0.10;;;12.20;99.90;;;;;;5001206;28;20120;-78
2022/09/28 06:25:20;;;;;;;0.20;0.20;;;12.30;99.90;;;;;;4999889;28;20033;-77
2022/09/28 06:27:59;;;;;;;0.10;0.10;;;12.30;99.90;;;;;;5000768;28;20033;-78
2022/09/28 06:30:26;;;;;;;0.20;0.20;;;12.30;99.90;;;;;;5000301;28;20718;-77
2022/09/28 06:32:57;;;;;;;25.23;16.60;;;12.30;99.90;;;;;;5000352;28;20044;-77
2022/09/28 06:35:24;;;;;;;0.20;0.20;;;12.50;99.90;;;;;;5001575;28;20025;-77
2022/09/28 06:37:51;;;;;;;0.10;0.10;;;12.50;99.90;;;;;;5000964;28;20034;-77
2022/09/28 06:40:18;;;;;;;0.68;0.65;;;12.40;99.90;;;;;;5001191;28;20022;-78
2022/09/28 06:42:44;;;;;;;0.10;0.10;;;12.40;99.90;;;;;;5001931;28;20322;-78
2022/09/28 06:45:14;;;;;;;0.10;0.10;;;12.50;99.90;;;;;;5001011;28;20337;-78
2022/09/28 06:47:40;;;;;;;0.25;0.25;;;11.20;99.90;;;;;;5000311;28;20076;-78
2022/09/28 06:50:11;;;;;;;0.10;0.10;;;12.80;99.90;;;;;;5005489;28;20493;-78
2022/09/28 06:52:36;;;;;;;0.10;0.10;;;12.60;99.90;;;;;;5003345;28;20080;-78
2022/09/28 06:55:02;;;;;;;0.75;0.75;;;12.70;99.90;;;;;;4998929;28;20033;-78
2022/09/28 06:57:28;;;;;;;0.10;0.10;;;12.70;99.90;;;;;;4998200;28;20113;-78
2022/09/28 06:59:54;;;;;;;0.10;0.10;;;12.70;99.90;;;;;;4999206;28;20438;-78
2022/09/28 07:02:21;;;;;;;1.65;1.65;;;12.80;99.90;;;;;;4997968;28;20714;-77
2022/09/28 07:04:47;;;;;;;0.30;0.30;;;12.80;99.90;;;;;;4999452;28;20401;-78
2022/09/28 07:07:13;;;;;;;0.10;0.10;;;12.90;99.90;;;;;;4999013;28;20033;-78
2022/09/28 07:09:38;;;;;;;0.10;0.10;;;12.90;99.90;;;;;;4998870;28;20396;-78
2022/09/28 07:12:04;;;;;;;6.55;6.03;;;13.00;99.90;;;;;;4996149;28;20595;-79
2022/09/28 07:14:33;;;;;;;0.10;0.10;;;12.90;99.90;;;;;;4997284;28;20028;-78
2022/09/28 07:16:59;;;;;;;0.80;0.77;;;13.00;99.90;;;;;;4996349;28;20186;-77
2022/09/28 07:19:25;;;;;;;0.45;0.45;;;13.10;99.90;;;;;;4998128;28;20065;-78
2022/09/28 07:21:51;;;;;;;0.10;0.10;;;13.10;99.90;;;;;;4997749;28;20053;-78
2022/09/28 07:24:18;;;;;;;0.10;0.10;;;13.10;99.90;;;;;;4997521;28;20022;-78
2022/09/28 07:26:46;;;;;;;1.90;1.83;;;13.20;99.90;;;;;;4997280;28;20041;-77
2022/09/28 07:29:12;;;;;;;0.10;0.10;;;13.20;99.90;;;;;;4997983;28;20022;-77
2022/09/28 07:31:39;;;;;;;0.10;0.10;;;13.40;99.90;;;;;;4996261;28;20188;-78
2022/09/28 07:34:05;;;;;;;1.52;1.35;;;13.50;99.90;;;;;;4996723;28;20026;-78
2022/09/28 07:36:33;;;;;;;0.65;0.65;;;13.70;99.90;;;;;;4997136;28;20030;-77
2022/09/28 07:39:00;;;;;;;0.10;0.10;;;14.10;99.90;;;;;;4998796;28;20029;-77
2022/09/28 07:41:33;;;;;;;0.40;0.40;;;11.90;99.90;;;;;;5000053;28;20129;-78
2022/09/28 07:44:04;;;;;;;0.17;0.17;;;14.60;99.90;;;;;;5001421;28;20253;-77
2022/09/28 07:46:36;;;;;;;0.32;0.32;;;14.60;99.90;;;;;;4999980;28;20022;-77
2022/09/28 07:49:05;;;;;;;0.17;0.17;;;14.80;99.90;;;;;;5001308;28;20100;-77
2022/09/28 07:51:32;;;;;;;0.10;0.10;;;14.90;99.90;;;;;;4999736;28;20481;-77
2022/09/28 07:53:58;;;;;;;0.10;0.10;;;15.10;99.90;;;;;;5001316;28;20032;-76
2022/09/28 07:56:24;;;;;;;0.25;0.25;;;15.20;99.90;;;;;;5000997;28;20018;-77
2022/09/28 07:58:50;;;;;;;0.10;0.10;;;15.20;99.90;;;;;;4999390;28;20573;-77
2022/09/28 08:01:17;;;;;;;1.08;1.00;;;15.50;99.90;;;;;;5001147;28;20101;-82
2022/09/28 08:03:44;;;;;;;0.10;0.10;;;15.30;99.90;;;;;;5001237;28;20025;-79
2022/09/28 08:06:11;;;;;;;0.10;0.10;;;15.30;99.90;;;;;;4999463;28;20036;-77
2022/09/28 08:08:43;;;;;;;3.25;3.08;;;15.40;99.90;;;;;;5001548;28;20250;-76
2022/09/28 08:11:11;;;;;;;0.10;0.10;;;15.60;99.90;;;;;;5000508;28;20060;-77
2022/09/28 08:13:37;;;;;;;1.98;1.88;;;15.80;99.90;;;;;;5001268;28;20044;-77
2022/09/28 08:16:04;;;;;;;0.10;0.10;;;15.90;99.90;;;;;;5000640;28;20030;-78
2022/09/28 08:18:31;;;;;;;0.30;0.30;;;15.90;99.90;;;;;;5000337;28;20053;-77
2022/09/28 08:23:41;;;;;;;0.10;0.10;;;15.90;99.90;;;;;;5000502;28;20060;-76
2022/09/28 08:26:07;;;;;;;0.10;0.10;;;15.70;99.90;;;;;;5000780;28;20014;-77
2022/09/28 08:28:34;;;;;;;0.10;0.10;;;15.80;99.90;;;;;;5000671;28;20389;-76
2022/09/28 08:31:00;;;;;;;0.10;0.10;;;15.90;99.90;;;;;;5000593;28;20139;-76
2022/09/28 08:33:26;;;;;;;1.85;1.75;;;16.00;99.90;;;;;;5000672;28;20115;-75
2022/09/28 08:35:57;;;;;;;0.10;0.10;;;16.20;99.90;;;;;;5000565;28;20172;-76
2022/09/28 08:38:24;;;;;;;0.10;0.10;;;16.20;99.90;;;;;;5000723;28;20014;-76
2022/09/28 08:41:10;;;;;;;0.10;0.10;;;16.00;99.90;;;;;;5000802;28;20026;-77
2022/09/28 08:44:03;;;;;;;0.40;0.40;;;16.00;99.90;;;;;;5000311;28;20215;-77
2022/09/28 08:46:46;;;;;;;0.10;0.10;;;16.20;99.90;;;;;;5000590;28;20056;-77
2022/09/28 08:49:38;;;;;;;0.20;0.20;;;16.50;99.90;;;;;;5000785;28;20057;-77
2022/09/28 08:52:17;;;;;;;0.10;0.10;;;16.50;99.90;;;;;;4999963;28;20117;-77
2022/09/28 08:54:53;;;;;;;0.10;0.10;;;16.80;99.90;;;;;;5000536;28;20026;-77
2022/09/28 08:57:25;;;;;;;0.10;0.10;;;16.80;99.90;;;;;;4999338;28;20042;-88
2022/09/28 08:59:59;;;;;;;0.40;0.40;;;17.10;99.90;;;;;;5000995;28;20290;-77
2022/09/28 09:02:32;;;;;;;0.10;0.10;;;17.40;99.90;;;;;;5001879;28;20095;-77
2022/09/28 09:05:02;;;;;;;0.75;0.75;;;17.60;99.90;;;;;;5001575;28;20018;-77
2022/09/28 09:07:53;;;;;;;0.90;0.90;;;17.90;99.90;;;;;;4999894;28;20045;-76
2022/09/28 09:10:43;;;;;;;0.15;0.15;;;18.10;99.90;;;;;;4998404;28;20038;-79
2022/09/28 09:13:22;;;;;;;0.32;0.32;;;18.10;99.90;;;;;;4999614;28;20026;-79
2022/09/28 09:15:50;;;;;;;0.10;0.10;;;18.30;99.90;;;;;;4999488;28;20034;-78
2022/09/28 09:18:54;;;;;;;0.13;0.13;;;18.60;99.90;;;;;;4999190;28;20034;-90
2022/09/28 09:21:41;;;;;;;0.08;0.08;;;18.70;99.90;;;;;;4995173;28;20390;-77
2022/09/28 09:24:27;;;;;;;0.38;0.38;;;18.40;99.90;;;;;;5004331;28;20025;-78
2022/09/28 09:27:31;;;;;;;0.95;0.75;;;18.50;99.90;;;;;;5003605;28;20402;-80
2022/09/28 09:30:05;;;;;;;0.55;0.55;;;18.60;99.90;;;;;;5001477;28;20026;-77
2022/09/28 09:33:09;;;;;;;0.10;0.10;;;18.30;99.90;;;;;;5000757;28;20497;-77
2022/09/28 09:35:36;;;;;;;0.10;0.10;;;18.40;99.90;;;;;;5000317;28;20059;-78
2022/09/28 09:38:27;;;;;;;0.38;0.38;;;18.40;99.90;;;;;;4999871;28;20210;-88
2022/09/28 09:41:23;;;;;;;0.10;0.10;;;18.40;99.90;;;;;;5000174;28;20028;-77
2022/09/28 09:44:27;;;;;;;0.10;0.10;;;18.40;99.90;;;;;;4998267;28;20120;-77
2022/09/28 09:47:06;;;;;;;0.10;0.10;;;16.20;99.90;;;;;;4977114;28;20468;-76
2022/09/28 09:49:44;;;;;;;0.13;0.13;;;18.70;99.90;;;;;;4976852;28;20042;-76
2022/09/28 09:52:15;;;;;;;0.30;0.30;;;18.90;99.90;;;;;;4960818;28;20397;-77
2022/09/28 09:55:04;;;;;;;0.10;0.10;;;19.00;99.90;;;;;;4976900;28;20026;-78
2022/09/28 09:57:53;;;;;;;0.10;0.10;;;19.10;99.90;;;;;;4976672;28;20454;-76
2022/09/28 10:00:19;;;;;;;0.10;0.10;;;19.00;99.90;;;;;;4976564;28;20028;-77
2022/09/28 10:02:47;;;;;;;0.10;0.10;;;19.10;99.90;;;;;;4976669;28;20116;-76
2022/09/28 10:05:12;;;;;;;0.10;0.10;;;19.30;99.90;;;;;;4977971;28;20536;-77
2022/09/28 10:07:48;;;;;;;0.32;0.32;;;19.70;99.90;;;;;;4961526;28;20263;-76
2022/09/28 10:10:34;;;;;;;0.10;0.10;;;20.40;99.90;;;;;;4961223;28;20065;-77
2022/09/28 10:13:00;;;;;;;0.20;0.20;;;20.10;99.90;;;;;;4977472;28;20073;-77
2022/09/28 10:15:29;;;;;;;0.10;0.10;;;19.90;99.90;;;;;;4976877;28;20549;-83
2022/09/28 10:17:57;;;;;;;0.00;0.00;;;19.80;99.90;;;;;;4978018;28;20069;-77
2022/09/28 10:20:24;;;;;;;0.75;0.73;;;19.70;99.90;;;;;;4977811;28;20026;-76
2022/09/28 10:22:56;;;;;;;0.00;0.00;;;19.80;99.90;;;;;;4985595;28;20034;-76
2022/09/28 10:25:23;;;;;;;0.00;0.00;;;19.90;99.90;;;;;;5000475;28;20014;-76
2022/09/28 10:27:51;;;;;;;0.47;0.45;;;19.80;99.90;;;;;;4996990;28;20288;-78
2022/09/28 10:30:22;;;;;;;0.20;0.20;;;19.90;99.90;;;;;;4997424;28;20026;-76
2022/09/28 10:32:54;;;;;;;0.10;0.10;;;19.90;99.90;;;;;;4997266;28;20371;-77
2022/09/28 10:35:25;;;;;;;0.98;0.98;;;19.90;99.90;;;;;;4998312;28;20026;-77
2022/09/28 10:37:54;;;;;;;0.10;0.10;;;20.00;99.90;;;;;;4999205;28;20030;-76
2022/09/28 10:40:31;;;;;;;0.10;0.10;;;20.00;99.90;;;;;;5000121;28;20049;-76
2022/09/28 10:43:14;;;;;;;0.10;0.10;;;20.10;99.90;;;;;;4996932;28;20030;-76
2022/09/28 10:45:40;;;;;;;0.98;0.98;;;20.20;99.90;;;;;;4997172;28;20219;-77
2022/09/28 10:48:16;;;;;;;0.10;0.10;;;20.30;99.90;;;;;;4996948;28;20029;-76
2022/09/28 10:50:42;;;;;;;0.10;0.10;;;20.30;99.90;;;;;;4997012;28;20045;-76
2022/09/28 10:53:19;;;;;;;0.63;0.63;;;20.00;99.90;;;;;;4998800;28;20272;-76
2022/09/28 10:56:01;;;;;;;0.10;0.10;;;20.20;99.90;;;;;;4996872;28;20032;-76
2022/09/28 10:58:52;;;;;;;0.10;0.10;;;20.30;99.90;;;;;;4998771;28;20127;-75
2022/09/28 11:01:22;;;;;;;0.28;0.28;;;20.40;99.90;;;;;;4995532;28;20042;-76
2022/09/28 11:03:56;;;;;;;0.13;0.13;;;20.50;99.90;;;;;;4998126;28;20029;-75
2022/09/28 11:06:24;;;;;;;0.10;0.10;;;20.70;99.90;;;;;;4998228;28;20017;-76
2022/09/28 11:08:52;;;;;;;0.00;0.00;;;20.80;99.90;;;;;;4997928;28;20212;-77
2022/09/28 11:11:21;;;;;;;0.10;0.10;;;18.00;99.90;;;;;;4998851;28;20223;-81
2022/09/28 11:13:52;;;;;;;0.10;0.10;;;20.90;99.90;;;;;;4997900;28;20018;-76
2022/09/28 11:16:19;;;;;;;0.10;0.10;;;20.90;99.90;;;;;;4997720;28;20029;-77
2022/09/28 11:18:45;;;;;;;0.85;0.85;;;;;;;;;;4997499;28;20058;-76
2022/09/28 11:21:17;;;;;;;0.35;0.35;;;21.00;99.90;;;;;;4998029;28;20101;-76
2022/09/28 11:24:07;;;;;;;0.10;0.10;;;20.80;99.90;;;;;;4997735;28;20022;-76
2022/09/28 11:26:45;;;;;;;0.10;0.10;;;20.70;99.90;;;;;;4997550;28;20566;-76
2022/09/28 11:29:34;;;;;;;0.10;0.10;;;20.70;99.90;;;;;;4996361;28;20076;-81
2022/09/28 11:32:03;;;;;;;0.20;0.20;;;20.50;99.90;;;;;;4996017;28;20026;-76
2022/09/28 11:34:36;;;;;;;7.63;7.22;;;20.40;99.90;;;;;;4997710;28;20032;-77
2022/09/28 11:37:32;;;;;;;0.75;0.75;;;20.30;99.90;;;;;;4996200;28;20553;-76
2022/09/28 11:40:04;;;;;;;0.10;0.10;;;20.30;99.90;;;;;;4998058;28;20034;-75
2022/09/28 11:43:05;;;;;;;0.10;0.10;;;20.30;99.90;;;;;;4996496;28;20131;-76
2022/09/28 11:45:53;;;;;;;0.10;0.10;;;20.20;99.90;;;;;;4974948;28;20049;-77
2022/09/28 11:48:35;;;;;;;0.10;0.10;;;20.40;99.90;;;;;;4974914;28;20034;-77
2022/09/28 11:51:11;;;;;;;0.10;0.10;;;20.70;99.90;;;;;;4974891;28;20145;-76
2022/09/28 11:54:03;;;;;;;0.03;0.03;;;21.10;99.90;;;;;;4975138;28;20221;-77
2022/09/28 11:56:38;;;;;;;4.40;1.33;;;21.60;99.90;;;;;;4974219;28;20052;-76
2022/09/28 11:59:29;;;;;;;1.23;1.13;;;22.00;99.90;;;;;;4975774;28;20019;-79
2022/09/28 12:01:59;;;;;;;0.10;0.10;;;22.50;99.90;;;;;;4917200;29;20055;-77
2022/09/28 12:04:36;;;;;;;0.10;0.10;;;23.00;99.90;;;;;;4917267;29;20507;-77
2022/09/28 12:07:21;;;;;;;0.00;0.00;;;23.30;99.70;;;;;;4918006;29;20062;-76
2022/09/28 12:09:56;;;;;;;0.10;0.10;;;23.50;98.50;;;;;;4917482;29;20130;-76
2022/09/28 12:12:31;;;;;;;0.43;0.43;;;23.40;96.60;;;;;;4918574;29;20052;-78
2022/09/28 12:15:03;;;;;;;0.00;0.00;;;23.50;97.10;;;;;;4919803;29;20431;-76
2022/09/28 12:17:39;;;;;;;0.00;0.00;;;23.60;96.50;;;;;;4917388;29;20254;-77
2022/09/28 12:20:16;;;;;;;0.13;0.13;;;23.80;95.50;;;;;;4917562;29;20244;-77
2022/09/28 12:22:48;;;;;;;0.05;0.05;;;23.60;94.10;;;;;;4917289;29;20036;-77
2022/09/28 12:25:19;;;;;;;0.20;0.20;;;23.60;94.30;;;;;;4901859;29;20024;-78
2022/09/28 12:27:56;;;;;;;0.00;0.00;;;23.60;94.80;;;;;;4921575;29;20267;-77
2022/09/28 12:30:26;;;;;;;0.00;0.00;;;23.50;92.90;;;;;;4921480;29;20670;-77
2022/09/28 12:32:58;;;;;;;15.35;1.85;;;23.40;92.80;;;;;;4921473;29;20103;-77
2022/09/28 12:35:45;;;;;;;0.00;0.00;;;23.20;93.60;;;;;;4921690;29;20317;-77
2022/09/28 12:38:30;;;;;;;0.00;0.00;;;23.10;93.40;;;;;;4934387;28;20740;-76
2022/09/28 12:41:16;;;;;;;0.00;0.00;;;23.00;92.70;;;;;;5001076;28;20266;-77
2022/09/28 12:44:10;;;;;;;0.20;0.20;;;23.00;92.90;;;;;;4978270;28;20098;-77
2022/09/28 12:47:04;;;;;;;0.10;0.10;;;23.00;92.40;;;;;;4978827;28;20505;-77
2022/09/28 12:49:55;;;;;;;0.00;0.00;;;23.30;91.50;;;;;;4978975;28;20075;-76
2022/09/28 12:52:35;;;;;;;0.22;0.22;;;23.80;91.20;;;;;;4979028;28;20508;-77
2022/09/28 12:55:14;;;;;;;0.10;0.10;;;24.70;90.30;;;;;;4978277;28;20691;-77
2022/09/28 12:58:23;;;;;;;0.55;0.55;;;25.30;87.20;;;;;;4977824;28;20244;-76
2022/09/28 13:00:59;;;;;;;0.10;0.10;;;25.80;83.40;;;;;;4920087;29;20357;-77
2022/09/28 13:03:44;;;;;;;0.00;0.00;;;26.10;82.00;;;;;;4920688;29;20024;-82
2022/09/28 13:06:16;;;;;;;0.00;0.00;;;26.50;80.90;;;;;;4920670;29;20039;-76
2022/09/28 13:08:54;;;;;;;0.00;0.00;;;25.80;76.60;;;;;;4920337;29;20040;-78
2022/09/28 13:11:48;;;;;;;0.10;0.10;;;25.80;78.10;;;;;;4920430;29;20614;-77
2022/09/28 13:14:32;;;;;;;0.28;0.28;;;25.40;77.50;;;;;;4921153;29;20032;-79
2022/09/28 13:17:33;;;;;;;0.00;0.00;;;24.80;79.90;;;;;;4920291;29;20542;-76
2022/09/28 13:20:16;;;;;;;0.00;0.00;;;24.60;81.20;;;;;;4880490;29;20099;-76
2022/09/28 13:23:07;;;;;;;0.00;0.00;;;24.40;82.60;;;;;;4847992;29;20332;-76
2022/09/28 13:25:35;;;;;;;0.00;0.00;;;24.20;85.00;;;;;;4863527;29;20093;-78